Velserdiep — PBLP — position and weather

sailwx.info

Track history (hours):
 
Tides and Currents Weather Stations Pressure Air Temp Water Temp Dewpoint Dewpoint Depression Visibility Wind Speed Wind Dir Waves Ship Positions

Velserdiep

Last reported at 2015-Apr-13 11:31 UTC. Time now 2015-Apr-21 21:08 UTC.
Position N 36°43' E 005°09'.
Warning: this ship's position is 8 days out of date.

Length 120 m; draft 7.1 m.

Type: Cargo ship. MMSI: 244484000.

Date/timePositionNaut miles runAvg speedWind from/ knotsBaromVisibWave heightAir tempDewpointWater temp
2015-Apr-13 11:31N 36°43' E 005°09'0 0.0
2015-Apr-13 05:28N 36°43' E 005°09'0 0.0
2015-Apr-13 03:15N 36°43' E 005°09'0 0.0
2015-Apr-12 23:30N 36°43' E 005°09'  
2015-Apr-08 22:31N 35°60' W 005°11'8 8.2
2015-Apr-08 21:33N 35°59' W 005°21'216 5.9
2015-Apr-07 09:09N 37°40' W 009°19'5 8.7
2015-Apr-07 08:33N 37°45' W 009°17'9 8.9
2015-Apr-07 07:33N 37°53' W 009°14'9 9.4
2015-Apr-07 06:33N 38°02' W 009°10'10 9.8
2015-Apr-07 05:33N 38°12' W 009°06'9 9.6
2015-Apr-07 04:33N 38°21' W 009°02'10 9.2
2015-Apr-07 03:30N 38°29' W 008°56'3 2.5
2015-Apr-07 02:16N 38°31' W 008°53'0 0.0
2015-Apr-07 01:07N 38°31' W 008°53'0 0.0
2015-Apr-07 00:22N 38°31' W 008°53'0 0.0
2015-Apr-06 23:31N 38°31' W 008°53'0 0.0
2015-Apr-06 22:31N 38°31' W 008°53'0 0.0
2015-Apr-06 20:10N 38°31' W 008°53'0 0.0
2015-Apr-06 19:25N 38°31' W 008°53'0 0.0
2015-Apr-06 18:16N 38°31' W 008°53'0 0.0
2015-Apr-06 16:19N 38°31' W 008°53'0 0.0
2015-Apr-06 15:13N 38°31' W 008°53'0 0.0
2015-Apr-06 10:28N 38°31' W 008°53'0 0.0
2015-Apr-06 06:31N 38°31' W 008°53'0 0.0
2015-Apr-06 03:34N 38°31' W 008°53'0 0.0
2015-Apr-06 01:33N 38°31' W 008°53'0 0.0
2015-Apr-05 23:27N 38°31' W 008°53'0 0.0
2015-Apr-05 22:33N 38°31' W 008°53'0 0.0
2015-Apr-05 20:18N 38°31' W 008°53'0 0.0
2015-Apr-05 18:15N 38°31' W 008°53'0 0.0
2015-Apr-05 17:33N 38°31' W 008°53'0 0.0
2015-Apr-05 16:33N 38°31' W 008°53'0 0.0
2015-Apr-05 15:33N 38°31' W 008°53'0 0.0
2015-Apr-05 14:33N 38°31' W 008°53'0 0.0
2015-Apr-05 13:30N 38°31' W 008°53'0 0.0
2015-Apr-05 12:33N 38°31' W 008°53'0 0.0
2015-Apr-05 11:30N 38°31' W 008°53'0 0.0
2015-Apr-05 10:27N 38°31' W 008°53'0 0.0
2015-Apr-05 09:33N 38°31' W 008°53'0 0.0
2015-Apr-05 08:33N 38°31' W 008°53'0 0.0
2015-Apr-05 07:33N 38°31' W 008°53'0 0.0
2015-Apr-05 06:24N 38°31' W 008°53'0 0.0
2015-Apr-05 05:30N 38°31' W 008°53'0 0.0
2015-Apr-05 04:30N 38°31' W 008°53'0 0.0
2015-Apr-05 03:33N 38°31' W 008°53'0 0.0
2015-Apr-05 02:33N 38°31' W 008°53'0 0.0
2015-Apr-05 01:33N 38°31' W 008°53'0 0.0
2015-Apr-05 00:30N 38°31' W 008°53'0 0.0
2015-Apr-04 23:33N 38°31' W 008°53'0 0.0
2015-Apr-04 22:33N 38°31' W 008°53'0 0.0
2015-Apr-04 21:33N 38°31' W 008°53'0 0.0
2015-Apr-04 20:30N 38°31' W 008°53'0 0.0
2015-Apr-04 19:33N 38°31' W 008°53'0 0.0
2015-Apr-04 18:24N 38°31' W 008°53'0 0.0
2015-Apr-04 17:33N 38°31' W 008°53'0 0.0
2015-Apr-04 16:33N 38°31' W 008°53'0 0.0
2015-Apr-04 15:33N 38°31' W 008°53'0 0.0
2015-Apr-04 14:30N 38°31' W 008°53'0 0.0
2015-Apr-04 13:32N 38°31' W 008°53'0 0.0
2015-Apr-04 12:32N 38°31' W 008°53'0 0.0
2015-Apr-04 11:32N 38°31' W 008°53'0 0.0
2015-Apr-04 10:32N 38°31' W 008°53'0 0.0
2015-Apr-04 09:17N 38°31' W 008°53'0 0.0
2015-Apr-04 08:32N 38°31' W 008°53'0 0.0
2015-Apr-04 07:26N 38°31' W 008°53'0 0.0
2015-Apr-04 06:32N 38°31' W 008°53'0 0.0
2015-Apr-04 05:32N 38°31' W 008°53'0 0.0
2015-Apr-04 04:26N 38°31' W 008°53'0 0.0
2015-Apr-04 03:32N 38°31' W 008°53'0 0.0
2015-Apr-04 02:29N 38°31' W 008°53'0 0.0
2015-Apr-04 01:32N 38°31' W 008°53'0 0.0
2015-Apr-04 00:29N 38°31' W 008°53'0 0.0
2015-Apr-03 23:29N 38°31' W 008°53'0 0.0
2015-Apr-03 22:23N 38°31' W 008°53'0 0.0
2015-Apr-03 21:29N 38°31' W 008°53'0 0.0
2015-Apr-03 20:32N 38°31' W 008°53'0 0.0
2015-Apr-03 19:29N 38°31' W 008°53'0 0.0
2015-Apr-03 18:26N 38°31' W 008°53'0 0.0
2015-Apr-03 17:26N 38°31' W 008°53'0 0.0
2015-Apr-03 16:32N 38°31' W 008°53'0 0.0
2015-Apr-03 15:32N 38°31' W 008°53'0 0.0
2015-Apr-03 14:32N 38°31' W 008°53'0 0.0
2015-Apr-03 13:29N 38°31' W 008°53'0 0.0
2015-Apr-03 12:32N 38°31' W 008°53'0 0.0
2015-Apr-03 11:32N 38°31' W 008°53'  
Track history (hours):
 
Tides and Currents Weather Stations Pressure Air Temp Water Temp Dewpoint Dewpoint Depression Visibility Wind Speed Wind Dir Waves Ship Positions

Velserdiep

Last reported at 2015-Apr-13 11:31 UTC. Time now 2015-Apr-21 21:08 UTC.
Position N 36°43' E 005°09'.
Warning: this ship's position is 8 days out of date.

Length 120 m; draft 7.1 m.

Type: Cargo ship. MMSI: 244484000.

Date/timePositionNaut miles runAvg speedWind from/ knotsBaromVisibWave heightAir tempDewpointWater temp
2015-Apr-13 11:31N 36°43' E 005°09'0 0.0
2015-Apr-13 05:28N 36°43' E 005°09'0 0.0
2015-Apr-13 03:15N 36°43' E 005°09'0 0.0
2015-Apr-12 23:30N 36°43' E 005°09'  
2015-Apr-08 22:31N 35°60' W 005°11'8 8.2
2015-Apr-08 21:33N 35°59' W 005°21'216 5.9
2015-Apr-07 09:09N 37°40' W 009°19'5 8.7
2015-Apr-07 08:33N 37°45' W 009°17'9 8.9
2015-Apr-07 07:33N 37°53' W 009°14'9 9.4
2015-Apr-07 06:33N 38°02' W 009°10'10 9.8
2015-Apr-07 05:33N 38°12' W 009°06'9 9.6
2015-Apr-07 04:33N 38°21' W 009°02'10 9.2
2015-Apr-07 03:30N 38°29' W 008°56'3 2.5
2015-Apr-07 02:16N 38°31' W 008°53'0 0.0
2015-Apr-07 01:07N 38°31' W 008°53'0 0.0
2015-Apr-07 00:22N 38°31' W 008°53'0 0.0
2015-Apr-06 23:31N 38°31' W 008°53'0 0.0
2015-Apr-06 22:31N 38°31' W 008°53'0 0.0
2015-Apr-06 20:10N 38°31' W 008°53'0 0.0
2015-Apr-06 19:25N 38°31' W 008°53'0 0.0
2015-Apr-06 18:16N 38°31' W 008°53'0 0.0
2015-Apr-06 16:19N 38°31' W 008°53'0 0.0
2015-Apr-06 15:13N 38°31' W 008°53'0 0.0
2015-Apr-06 10:28N 38°31' W 008°53'0 0.0
2015-Apr-06 06:31N 38°31' W 008°53'0 0.0
2015-Apr-06 03:34N 38°31' W 008°53'0 0.0
2015-Apr-06 01:33N 38°31' W 008°53'0 0.0
2015-Apr-05 23:27N 38°31' W 008°53'0 0.0
2015-Apr-05 22:33N 38°31' W 008°53'0 0.0
2015-Apr-05 20:18N 38°31' W 008°53'0 0.0
2015-Apr-05 18:15N 38°31' W 008°53'0 0.0
2015-Apr-05 17:33N 38°31' W 008°53'0 0.0
2015-Apr-05 16:33N 38°31' W 008°53'0 0.0
2015-Apr-05 15:33N 38°31' W 008°53'0 0.0
2015-Apr-05 14:33N 38°31' W 008°53'0 0.0
2015-Apr-05 13:30N 38°31' W 008°53'0 0.0
2015-Apr-05 12:33N 38°31' W 008°53'0 0.0
2015-Apr-05 11:30N 38°31' W 008°53'0 0.0
2015-Apr-05 10:27N 38°31' W 008°53'0 0.0
2015-Apr-05 09:33N 38°31' W 008°53'0 0.0
2015-Apr-05 08:33N 38°31' W 008°53'0 0.0
2015-Apr-05 07:33N 38°31' W 008°53'0 0.0
2015-Apr-05 06:24N 38°31' W 008°53'0 0.0
2015-Apr-05 05:30N 38°31' W 008°53'0 0.0
2015-Apr-05 04:30N 38°31' W 008°53'0 0.0
2015-Apr-05 03:33N 38°31' W 008°53'0 0.0
2015-Apr-05 02:33N 38°31' W 008°53'0 0.0
2015-Apr-05 01:33N 38°31' W 008°53'0 0.0
2015-Apr-05 00:30N 38°31' W 008°53'0 0.0
2015-Apr-04 23:33N 38°31' W 008°53'0 0.0
2015-Apr-04 22:33N 38°31' W 008°53'0 0.0
2015-Apr-04 21:33N 38°31' W 008°53'0 0.0
2015-Apr-04 20:30N 38°31' W 008°53'0 0.0
2015-Apr-04 19:33N 38°31' W 008°53'0 0.0
2015-Apr-04 18:24N 38°31' W 008°53'0 0.0
2015-Apr-04 17:33N 38°31' W 008°53'0 0.0
2015-Apr-04 16:33N 38°31' W 008°53'0 0.0
2015-Apr-04 15:33N 38°31' W 008°53'0 0.0
2015-Apr-04 14:30N 38°31' W 008°53'0 0.0
2015-Apr-04 13:32N 38°31' W 008°53'0 0.0
2015-Apr-04 12:32N 38°31' W 008°53'0 0.0
2015-Apr-04 11:32N 38°31' W 008°53'0 0.0
2015-Apr-04 10:32N 38°31' W 008°53'0 0.0
2015-Apr-04 09:17N 38°31' W 008°53'0 0.0
2015-Apr-04 08:32N 38°31' W 008°53'0 0.0
2015-Apr-04 07:26N 38°31' W 008°53'0 0.0
2015-Apr-04 06:32N 38°31' W 008°53'0 0.0
2015-Apr-04 05:32N 38°31' W 008°53'0 0.0
2015-Apr-04 04:26N 38°31' W 008°53'0 0.0
2015-Apr-04 03:32N 38°31' W 008°53'0 0.0
2015-Apr-04 02:29N 38°31' W 008°53'0 0.0
2015-Apr-04 01:32N 38°31' W 008°53'0 0.0
2015-Apr-04 00:29N 38°31' W 008°53'0 0.0
2015-Apr-03 23:29N 38°31' W 008°53'0 0.0
2015-Apr-03 22:23N 38°31' W 008°53'0 0.0
2015-Apr-03 21:29N 38°31' W 008°53'0 0.0
2015-Apr-03 20:32N 38°31' W 008°53'0 0.0
2015-Apr-03 19:29N 38°31' W 008°53'0 0.0
2015-Apr-03 18:26N 38°31' W 008°53'0 0.0
2015-Apr-03 17:26N 38°31' W 008°53'0 0.0
2015-Apr-03 16:32N 38°31' W 008°53'0 0.0
2015-Apr-03 15:32N 38°31' W 008°53'0 0.0
2015-Apr-03 14:32N 38°31' W 008°53'0 0.0
2015-Apr-03 13:29N 38°31' W 008°53'0 0.0
2015-Apr-03 12:32N 38°31' W 008°53'0 0.0
2015-Apr-03 11:32N 38°31' W 008°53'  

Dump ship's entire track history